Pagina principale
METAR-TAF:

METAR-TAF

Aeroporti :

Asyūṭ, Egitto

latitudine: 27-03N, longitudine: 031-01E, altezza: 226 m

Osservazione

Il bollettino è stato emesso 1 ora e 2 minuti fa, alle 05:00 UTC
Vento 10 kt da nord
Temperature 29°C
Umidità 48%
Pressione 1010 hPa
Visibilità 10 km o più
nessuna nube inferiore a 1500 m e nessun cumulonembo

METAR: HEAT 260500Z 35010KT CAVOK 29/17 Q1010 NOSIG

Ora: 08:02 (06:02 UTC)

Previsione

Il bollettino è stato emesso 1 ora e 2 minuti fa, alle 05:00 UTC
Previsione valida dal 26 alle 06 UTC al 27 alle 12 UTC
Vento 8 kt da nord-ovest con raffiche fino a 18 kt
Visibilità 10 km o più
nessuna nube inferiore a 1500 m e nessun cumulonembo

TAF: HEAT 260500Z 2606/2712 32008G18KT CAVOK

Osservazioni e previsioni meteorologiche di più di 4000 aeroporti (messaggi METAR e TAF).

Le stazioni disponibili sono rappresentate dai dischi gialli e rossi sulla carta.

Puntare il mouse per vedere il nome della stazione.

Clicca sopra per visualizzare le osservazioni e previsioni meteorologiche.

Per cambiare la mappa : fare clic sui pulsanti verdi con una croce nera per ingrandire, il pulsante verde con un trattino per diminuire, o sulla freccia verde per le mappe adiacenti.


METAR-TAF: